createdAt,value
2018-09-28T00:01:17.037Z,14.69
2018-09-28T00:03:46.135Z,14.70
2018-09-28T00:06:15.190Z,14.69
2018-09-28T00:08:44.201Z,14.70
2018-09-28T00:11:13.789Z,14.70
2018-09-28T00:13:42.515Z,14.69
2018-09-28T00:16:11.676Z,14.70
2018-09-28T00:18:40.472Z,14.67
2018-09-28T00:21:09.538Z,14.67
2018-09-28T00:23:38.340Z,14.67
2018-09-28T00:26:07.586Z,14.67
2018-09-28T00:28:36.336Z,14.70
2018-09-28T00:31:05.334Z,14.73
2018-09-28T00:33:34.382Z,14.75
2018-09-28T00:36:03.302Z,14.76
2018-09-28T00:38:32.086Z,14.80
2018-09-28T00:41:01.010Z,14.84
2018-09-28T00:43:30.085Z,14.86
2018-09-28T00:45:59.009Z,14.86
2018-09-28T00:48:27.751Z,14.87
2018-09-28T00:50:56.557Z,14.88
2018-09-28T00:53:25.711Z,14.90
2018-09-28T00:55:54.734Z,14.90
2018-09-28T00:58:23.547Z,14.95
2018-09-28T01:00:52.392Z,14.94
2018-09-28T01:03:21.567Z,14.99
2018-09-28T01:05:50.850Z,14.99
2018-09-28T01:08:19.621Z,15.00
2018-09-28T01:10:48.426Z,15.01
2018-09-28T01:13:17.502Z,15.03
2018-09-28T01:15:46.307Z,15.03
2018-09-28T01:18:15.115Z,15.02
2018-09-28T01:20:44.192Z,15.06
2018-09-28T01:23:12.987Z,15.05
2018-09-28T01:25:41.817Z,15.05
2018-09-28T01:28:10.698Z,15.07
2018-09-28T01:30:39.750Z,15.07
2018-09-28T01:33:08.580Z,15.09
2018-09-28T01:35:37.407Z,15.12
2018-09-28T01:38:06.233Z,15.17
2018-09-28T01:40:35.339Z,15.16
2018-09-28T01:43:04.508Z,15.15
2018-09-28T01:45:33.955Z,15.15
2018-09-28T01:48:02.844Z,15.13
2018-09-28T01:50:31.652Z,15.13
2018-09-28T01:53:00.482Z,15.15
2018-09-28T01:55:35.540Z,15.14
2018-09-28T01:58:04.412Z,15.17
2018-09-28T02:00:33.185Z,15.15
2018-09-28T02:03:02.059Z,15.15
2018-09-28T02:05:30.866Z,15.11
2018-09-28T02:08:00.036Z,15.12
2018-09-28T02:10:28.860Z,15.09
2018-09-28T02:12:57.840Z,15.09
2018-09-28T02:15:26.622Z,15.06
2018-09-28T02:17:55.682Z,15.03
2018-09-28T02:20:24.481Z,15.02
2018-09-28T02:22:53.471Z,14.99
2018-09-28T02:25:22.272Z,15.04
2018-09-28T02:27:51.061Z,14.99
2018-09-28T02:30:19.874Z,14.96
2018-09-28T02:32:48.700Z,14.95
2018-09-28T02:35:17.682Z,14.94
2018-09-28T02:37:46.651Z,14.92
2018-09-28T02:40:15.504Z,14.91
2018-09-28T02:42:44.299Z,14.89
2018-09-28T02:45:13.142Z,14.83
2018-09-28T02:47:42.882Z,14.80
2018-09-28T02:50:11.750Z,14.70
2018-09-28T02:52:40.565Z,14.67
2018-09-28T02:55:09.422Z,14.67
2018-09-28T02:57:38.882Z,14.66
2018-09-28T03:00:07.668Z,14.64
2018-09-28T03:02:36.480Z,14.61
2018-09-28T03:05:05.512Z,14.59
2018-09-28T03:07:34.376Z,14.52
2018-09-28T03:10:03.172Z,14.54
2018-09-28T03:12:31.927Z,14.52
2018-09-28T03:15:00.781Z,14.53
2018-09-28T03:17:29.858Z,14.49
2018-09-28T03:19:58.687Z,14.52
2018-09-28T03:22:27.430Z,14.48
2018-09-28T03:24:56.948Z,14.48
2018-09-28T03:27:25.726Z,14.42
2018-09-28T03:29:54.503Z,14.41
2018-09-28T03:32:23.706Z,14.39
2018-09-28T03:34:52.894Z,14.36
2018-09-28T03:37:21.974Z,14.35
2018-09-28T03:39:51.097Z,14.34
2018-09-28T03:42:19.970Z,14.37
2018-09-28T03:44:48.856Z,14.33
2018-09-28T03:47:17.813Z,14.35
2018-09-28T03:49:46.663Z,14.30
2018-09-28T03:52:18.623Z,14.27
2018-09-28T03:54:47.764Z,14.24
2018-09-28T03:57:17.095Z,14.22
2018-09-28T03:59:46.153Z,14.21
2018-09-28T04:02:14.865Z,14.19
2018-09-28T04:04:43.654Z,14.19
2018-09-28T04:07:12.682Z,14.17
2018-09-28T04:09:41.811Z,14.19
2018-09-28T04:12:10.618Z,14.15
2018-09-28T04:14:39.702Z,14.17
2018-09-28T04:17:08.551Z,14.18
2018-09-28T04:19:37.338Z,14.17
2018-09-28T04:22:06.821Z,14.16
2018-09-28T04:24:35.570Z,14.20
2018-09-28T04:27:04.682Z,14.19
2018-09-28T04:29:33.838Z,14.17
2018-09-28T04:32:03.422Z,14.15
2018-09-28T04:34:32.214Z,14.12
2018-09-28T04:37:01.015Z,14.16
2018-09-28T04:39:29.853Z,14.13
2018-09-28T04:41:58.674Z,14.11
2018-09-28T04:44:27.503Z,14.10
2018-09-28T04:46:56.498Z,14.07
2018-09-28T04:49:25.302Z,14.01
2018-09-28T04:51:54.111Z,14.05
2018-09-28T04:54:23.162Z,14.05
2018-09-28T04:56:53.011Z,14.05
2018-09-28T04:59:22.770Z,14.04
2018-09-28T05:01:53.026Z,14.02
2018-09-28T05:04:22.915Z,13.97
2018-09-28T05:06:53.361Z,13.98
2018-09-28T05:09:22.454Z,13.93
2018-09-28T05:11:51.871Z,13.91
2018-09-28T05:14:20.678Z,13.88
2018-09-28T05:16:50.228Z,13.91
2018-09-28T05:19:19.418Z,13.87
2018-09-28T05:21:48.178Z,13.84
2018-09-28T05:24:17.617Z,13.81
2018-09-28T05:26:46.891Z,13.83
2018-09-28T05:29:15.631Z,13.83
2018-09-28T05:31:45.105Z,13.81
2018-09-28T05:34:14.093Z,13.79
2018-09-28T05:36:42.954Z,13.77
2018-09-28T05:39:11.833Z,13.77
2018-09-28T05:41:41.097Z,13.76
2018-09-28T05:44:09.843Z,13.72
2018-09-28T05:46:38.614Z,13.70
2018-09-28T05:49:07.657Z,13.73
2018-09-28T05:51:37.103Z,13.70
2018-09-28T05:54:06.439Z,13.70
2018-09-28T05:56:35.172Z,13.67
2018-09-28T05:59:09.156Z,13.65
2018-09-28T06:01:43.399Z,13.61
2018-09-28T06:04:17.447Z,13.66
2018-09-28T06:06:46.294Z,13.66
2018-09-28T06:09:15.015Z,13.67
2018-09-28T06:11:44.123Z,13.66
2018-09-28T06:14:13.574Z,13.66
2018-09-28T06:16:42.652Z,13.61
2018-09-28T06:19:11.461Z,13.58
2018-09-28T06:21:40.575Z,13.56
2018-09-28T06:24:09.420Z,13.56
2018-09-28T06:26:38.160Z,13.56
2018-09-28T06:29:06.963Z,13.59
2018-09-28T06:31:35.760Z,13.65
2018-09-28T06:34:04.929Z,13.67
2018-09-28T06:36:33.759Z,13.63
2018-09-28T06:39:02.879Z,13.67
2018-09-28T06:41:31.943Z,13.69
2018-09-28T06:44:00.665Z,13.72
2018-09-28T06:46:29.423Z,13.68
2018-09-28T06:48:58.923Z,13.62
2018-09-28T06:51:27.854Z,13.60
2018-09-28T06:53:56.729Z,13.58
2018-09-28T06:56:25.530Z,13.57
2018-09-28T06:58:54.259Z,13.55
2018-09-28T07:01:23.027Z,13.60
2018-09-28T07:03:51.821Z,13.67
2018-09-28T07:06:20.661Z,13.69
2018-09-28T07:08:49.817Z,13.75
2018-09-28T07:11:19.421Z,13.75
2018-09-28T07:13:49.432Z,13.80
2018-09-28T07:16:18.204Z,13.83
2018-09-28T07:18:47.236Z,13.84
2018-09-28T07:21:16.792Z,13.88
2018-09-28T07:23:45.600Z,13.92
2018-09-28T07:26:14.609Z,13.96
2018-09-28T07:28:44.006Z,14.03
2018-09-28T07:31:13.107Z,14.05
2018-09-28T07:33:41.851Z,14.11
2018-09-28T07:36:10.757Z,14.16
2018-09-28T07:38:39.663Z,14.19
2018-09-28T07:41:08.546Z,14.23
2018-09-28T07:43:37.404Z,14.30
2018-09-28T07:46:06.809Z,14.37
2018-09-28T07:48:35.656Z,14.45
2018-09-28T07:51:04.690Z,14.52
2018-09-28T07:53:33.718Z,14.53
2018-09-28T07:56:02.453Z,14.61
2018-09-28T07:58:31.655Z,14.65
2018-09-28T08:01:00.799Z,14.68
2018-09-28T08:03:30.377Z,14.67
2018-09-28T08:06:00.489Z,14.69
2018-09-28T08:08:30.693Z,14.73
2018-09-28T08:10:59.760Z,14.72
2018-09-28T08:13:28.853Z,14.71
2018-09-28T08:15:57.631Z,14.72
2018-09-28T08:18:27.104Z,14.74
2018-09-28T08:20:55.942Z,14.63
2018-09-28T08:23:25.011Z,14.64
2018-09-28T08:26:00.379Z,14.64
2018-09-28T08:28:29.701Z,14.64
2018-09-28T08:30:58.399Z,14.64
2018-09-28T08:33:27.528Z,14.69
2018-09-28T08:35:56.958Z,14.67
2018-09-28T08:38:26.026Z,14.70
2018-09-28T08:40:54.869Z,14.75
2018-09-28T08:43:24.104Z,14.84
2018-09-28T08:45:53.211Z,14.88
2018-09-28T08:48:21.967Z,15.05
2018-09-28T08:50:51.060Z,15.31
2018-09-28T08:53:21.393Z,15.42
2018-09-28T08:55:50.129Z,15.56
2018-09-28T08:58:19.335Z,15.58
2018-09-28T09:00:48.907Z,15.59
2018-09-28T09:03:17.801Z,15.49
2018-09-28T09:05:46.654Z,15.51
2018-09-28T09:08:15.737Z,15.48
2018-09-28T09:10:44.579Z,15.39
2018-09-28T09:13:13.434Z,15.35
2018-09-28T09:15:42.258Z,15.30
2018-09-28T09:18:11.269Z,15.30
2018-09-28T09:20:40.312Z,15.30
2018-09-28T09:23:09.763Z,15.31
2018-09-28T09:25:38.677Z,15.35
2018-09-28T09:28:08.376Z,15.44
2018-09-28T09:30:37.343Z,15.55
2018-09-28T09:33:06.120Z,15.63
2018-09-28T09:35:36.952Z,15.75
2018-09-28T09:38:06.054Z,15.93
2018-09-28T09:40:34.886Z,16.02
2018-09-28T09:43:03.839Z,16.10
2018-09-28T09:45:32.975Z,16.04
2018-09-28T09:48:01.764Z,16.08
2018-09-28T09:50:30.507Z,16.11
2018-09-28T09:52:59.331Z,16.18
2018-09-28T09:55:28.152Z,16.27
2018-09-28T09:57:57.247Z,16.31
2018-09-28T10:00:30.980Z,16.28
2018-09-28T10:04:03.337Z,16.36
2018-09-28T10:06:32.446Z,16.54
2018-09-28T10:09:01.491Z,16.65
2018-09-28T10:11:30.272Z,16.71
2018-09-28T10:13:59.406Z,16.68
2018-09-28T10:16:28.700Z,16.52
2018-09-28T10:19:04.618Z,16.39
2018-09-28T10:21:33.809Z,16.24
2018-09-28T10:24:03.770Z,15.99
2018-09-28T10:26:32.843Z,15.77
2018-09-28T10:29:01.904Z,15.74
2018-09-28T10:31:30.999Z,15.71
2018-09-28T10:33:59.864Z,15.64
2018-09-28T10:36:28.665Z,15.73
2018-09-28T10:38:57.481Z,16.08
2018-09-28T10:41:26.416Z,16.41
2018-09-28T10:43:55.238Z,16.80
2018-09-28T10:46:24.656Z,17.24
2018-09-28T10:48:54.251Z,17.60
2018-09-28T10:51:23.699Z,17.65
2018-09-28T10:53:52.713Z,17.60
2018-09-28T10:56:21.632Z,17.70
2018-09-28T10:58:50.492Z,17.87
2018-09-28T11:01:19.244Z,17.87
2018-09-28T11:03:48.429Z,17.58
2018-09-28T11:06:17.152Z,17.18
2018-09-28T11:08:46.349Z,16.99
2018-09-28T11:11:15.283Z,16.85
2018-09-28T11:13:44.320Z,16.75
2018-09-28T11:16:13.388Z,16.66
2018-09-28T11:18:42.325Z,16.80
2018-09-28T11:21:11.517Z,17.08
2018-09-28T11:23:40.311Z,17.42
2018-09-28T11:26:09.125Z,17.70
2018-09-28T11:28:38.403Z,17.96
2018-09-28T11:31:07.680Z,17.99
2018-09-28T11:33:37.044Z,17.98
2018-09-28T11:36:06.507Z,18.02
2018-09-28T11:38:35.612Z,18.15
2018-09-28T11:41:04.765Z,18.29
2018-09-28T11:43:33.538Z,18.47
2018-09-28T11:46:02.387Z,18.80
2018-09-28T11:48:31.735Z,18.96
2018-09-28T11:51:01.101Z,18.81
2018-09-28T11:53:29.857Z,18.96
2018-09-28T11:55:58.974Z,19.15
2018-09-28T11:58:27.708Z,19.14
2018-09-28T12:00:56.959Z,19.47
2018-09-28T12:03:26.049Z,19.66
2018-09-28T12:05:55.020Z,19.60
2018-09-28T12:08:23.926Z,19.72
2018-09-28T12:10:52.783Z,19.58
2018-09-28T12:13:21.823Z,19.73
2018-09-28T12:15:51.000Z,20.03
2018-09-28T12:18:19.687Z,20.27
2018-09-28T12:20:49.999Z,20.42
2018-09-28T12:23:19.115Z,20.39
2018-09-28T12:25:48.120Z,20.41
2018-09-28T12:28:16.882Z,20.35
2018-09-28T12:30:45.794Z,20.43
2018-09-28T12:33:16.815Z,20.60
2018-09-28T12:35:46.189Z,20.60
2018-09-28T12:38:15.053Z,20.53
2018-09-28T12:40:44.063Z,20.59
2018-09-28T12:43:12.956Z,20.65
2018-09-28T12:45:42.252Z,20.15
2018-09-28T12:48:12.222Z,19.80
2018-09-28T12:50:41.117Z,19.56
2018-09-28T12:53:10.462Z,19.39
2018-09-28T12:55:39.584Z,18.93
2018-09-28T12:58:08.476Z,18.77
2018-09-28T13:00:37.634Z,18.80
2018-09-28T13:03:06.343Z,19.08
2018-09-28T13:05:35.067Z,19.28
2018-09-28T13:08:04.421Z,19.40
2018-09-28T13:10:33.842Z,19.70
2018-09-28T13:13:02.898Z,19.49
2018-09-28T13:15:32.243Z,19.50
2018-09-28T13:18:01.076Z,19.55
2018-09-28T13:20:31.209Z,19.62
2018-09-28T13:23:00.454Z,19.53
2018-09-28T13:25:29.302Z,19.27
2018-09-28T13:27:58.671Z,18.99
2018-09-28T13:30:27.421Z,19.02
2018-09-28T13:32:56.310Z,18.94
2018-09-28T13:35:25.067Z,18.82
2018-09-28T13:37:54.388Z,18.71
2018-09-28T13:40:23.386Z,18.52
2018-09-28T13:42:52.123Z,18.57
2018-09-28T13:45:21.217Z,18.64
2018-09-28T13:47:50.000Z,18.94
2018-09-28T13:50:18.854Z,19.23
2018-09-28T13:52:47.919Z,19.20
2018-09-28T13:55:17.650Z,18.83
2018-09-28T13:57:46.823Z,18.59
2018-09-28T14:00:15.591Z,18.70
2018-09-28T14:02:44.475Z,18.82
2018-09-28T14:05:13.486Z,19.03
2018-09-28T14:07:42.876Z,19.12
2018-09-28T14:10:12.048Z,19.35
2018-09-28T14:12:41.414Z,19.40
2018-09-28T14:15:10.175Z,19.18
2018-09-28T14:17:40.579Z,18.89
2018-09-28T14:20:11.947Z,18.63
2018-09-28T14:22:47.537Z,18.61
2018-09-28T14:25:16.741Z,18.64
2018-09-28T14:27:45.552Z,18.57
2018-09-28T14:30:14.623Z,18.55
2018-09-28T14:32:43.480Z,18.68
2018-09-28T14:35:12.554Z,18.78
2018-09-28T14:37:41.749Z,18.90
2018-09-28T14:40:10.766Z,18.89
2018-09-28T14:42:40.227Z,18.92
2018-09-28T14:45:09.265Z,18.88
2018-09-28T14:47:38.131Z,18.62
2018-09-28T14:50:06.936Z,18.39
2018-09-28T14:52:36.362Z,18.35
2018-09-28T14:55:05.506Z,18.25
2018-09-28T14:57:34.300Z,18.31
2018-09-28T15:00:03.249Z,18.38
2018-09-28T15:02:33.146Z,18.33
2018-09-28T15:05:02.035Z,18.25
2018-09-28T15:07:30.763Z,18.08
2018-09-28T15:09:59.837Z,17.83
2018-09-28T15:12:28.580Z,17.73
2018-09-28T15:14:57.351Z,17.53
2018-09-28T15:17:26.568Z,17.35
2018-09-28T15:19:55.363Z,17.33
2018-09-28T15:22:24.453Z,17.21
2018-09-28T15:24:53.596Z,17.10
2018-09-28T15:27:22.443Z,16.92
2018-09-28T15:29:57.592Z,16.78
2018-09-28T15:32:26.342Z,16.70
2018-09-28T15:34:55.385Z,16.63
2018-09-28T15:37:24.166Z,16.50
2018-09-28T15:39:52.918Z,16.37
2018-09-28T15:42:21.692Z,16.23
2018-09-28T15:44:51.019Z,16.10
2018-09-28T15:47:21.745Z,15.98
2018-09-28T15:49:50.866Z,15.91
2018-09-28T15:52:19.668Z,15.75
2018-09-28T15:54:48.810Z,15.69
2018-09-28T15:57:17.620Z,15.65
2018-09-28T15:59:46.868Z,15.70
2018-09-28T16:02:16.032Z,15.62
2018-09-28T16:04:44.807Z,15.47
2018-09-28T16:07:13.571Z,15.48
2018-09-28T16:09:42.390Z,15.41
2018-09-28T16:12:11.309Z,15.38
2018-09-28T16:14:40.262Z,15.33
2018-09-28T16:17:09.023Z,15.27
2018-09-28T16:19:37.927Z,15.23
2018-09-28T16:22:06.994Z,15.10
2018-09-28T16:24:36.209Z,15.04
2018-09-28T16:27:05.239Z,14.84
2018-09-28T16:29:34.092Z,14.70
2018-09-28T16:32:02.962Z,14.58
2018-09-28T16:34:31.746Z,14.47
2018-09-28T16:37:00.903Z,14.43
2018-09-28T16:39:30.180Z,14.40
2018-09-28T16:41:59.214Z,14.41
2018-09-28T16:44:28.289Z,14.39
2018-09-28T16:46:57.070Z,14.32
2018-09-28T16:49:25.882Z,14.19
2018-09-28T16:51:55.024Z,14.12
2018-09-28T16:54:24.092Z,14.01
2018-09-28T16:56:53.499Z,14.02
2018-09-28T16:59:22.619Z,13.99
2018-09-28T17:01:52.071Z,13.97
2018-09-28T17:04:21.199Z,13.93
2018-09-28T17:06:50.671Z,13.90
2018-09-28T17:09:19.469Z,13.86
2018-09-28T17:11:48.261Z,13.81
2018-09-28T17:14:17.342Z,13.73
2018-09-28T17:16:46.142Z,13.66
2018-09-28T17:19:16.003Z,13.62
2018-09-28T17:21:45.151Z,13.51
2018-09-28T17:24:14.886Z,13.47
2018-09-28T17:26:45.762Z,13.38
2018-09-28T17:29:31.081Z,13.29
2018-09-28T17:32:00.867Z,13.24
2018-09-28T17:34:31.199Z,13.25
2018-09-28T17:37:00.350Z,13.24
2018-09-28T17:39:29.734Z,13.17
2018-09-28T17:41:59.192Z,13.15
2018-09-28T17:44:28.043Z,13.11
2018-09-28T17:46:57.497Z,13.02
2018-09-28T17:49:26.307Z,12.97
2018-09-28T17:51:55.375Z,12.93
2018-09-28T17:54:24.095Z,12.88
2018-09-28T17:56:52.844Z,12.84
2018-09-28T17:59:21.676Z,12.83
2018-09-28T18:01:50.944Z,12.80
2018-09-28T18:04:20.590Z,12.73
2018-09-28T18:06:49.710Z,12.72
2018-09-28T18:09:18.444Z,12.67
2018-09-28T18:11:47.806Z,12.65
2018-09-28T18:14:16.702Z,12.61
2018-09-28T18:16:45.752Z,12.61
2018-09-28T18:19:14.810Z,12.58
2018-09-28T18:21:43.566Z,12.53
2018-09-28T18:24:12.302Z,12.48
2018-09-28T18:26:41.035Z,12.44
2018-09-28T18:29:10.152Z,12.43
2018-09-28T18:31:38.884Z,12.38
2018-09-28T18:34:07.933Z,12.35
2018-09-28T18:36:36.701Z,12.33
2018-09-28T18:39:08.211Z,12.21
2018-09-28T18:41:37.001Z,12.17
2018-09-28T18:44:07.001Z,12.14
2018-09-28T18:46:35.815Z,12.11
2018-09-28T18:49:04.806Z,12.07
2018-09-28T18:51:33.895Z,12.05
2018-09-28T18:54:03.030Z,12.01
2018-09-28T18:56:32.950Z,11.96
2018-09-28T18:59:02.026Z,11.92
2018-09-28T19:01:31.169Z,11.89
2018-09-28T19:03:59.905Z,11.87
2018-09-28T19:06:28.658Z,11.84
2018-09-28T19:08:57.970Z,11.76
2018-09-28T19:11:27.139Z,11.70
2018-09-28T19:13:56.412Z,11.65
2018-09-28T19:16:25.176Z,11.58
2018-09-28T19:18:53.939Z,11.52
2018-09-28T19:21:22.789Z,11.44
2018-09-28T19:23:52.084Z,11.37
2018-09-28T19:26:20.854Z,11.30
2018-09-28T19:28:49.935Z,11.25
2018-09-28T19:31:18.804Z,11.20
2018-09-28T19:33:47.936Z,11.13
2018-09-28T19:36:16.996Z,11.06
2018-09-28T19:38:45.930Z,11.01
2018-09-28T19:41:15.308Z,10.96
2018-09-28T19:43:44.095Z,10.89
2018-09-28T19:46:13.510Z,10.79
2018-09-28T19:48:43.627Z,10.70
2018-09-28T19:51:12.397Z,10.65
2018-09-28T19:53:41.235Z,10.58
2018-09-28T19:56:10.211Z,10.52
2018-09-28T19:58:39.765Z,10.45
2018-09-28T20:01:08.641Z,10.40
2018-09-28T20:03:37.434Z,10.33
2018-09-28T20:06:06.924Z,10.27
2018-09-28T20:08:35.875Z,10.21
2018-09-28T20:11:04.702Z,10.18
2018-09-28T20:13:33.492Z,10.16
2018-09-28T20:16:02.516Z,10.11
2018-09-28T20:18:31.834Z,10.06
2018-09-28T20:21:00.585Z,10.04
2018-09-28T20:23:29.426Z,10.00
2018-09-28T20:25:58.410Z,9.95
2018-09-28T20:28:27.450Z,9.91
2018-09-28T20:30:56.206Z,9.87
2018-09-28T20:33:24.951Z,9.82
2018-09-28T20:35:54.107Z,9.77
2018-09-28T20:38:22.878Z,9.72
2018-09-28T20:40:51.599Z,9.66
2018-09-28T20:43:21.101Z,9.59
2018-09-28T20:45:50.263Z,9.56
2018-09-28T20:48:19.835Z,9.50
2018-09-28T20:50:49.849Z,9.46
2018-09-28T20:53:19.928Z,9.41
2018-09-28T20:55:50.109Z,9.37
2018-09-28T20:58:18.951Z,9.32
2018-09-28T21:00:48.271Z,9.26
2018-09-28T21:03:17.273Z,9.19
2018-09-28T21:05:46.041Z,9.13
2018-09-28T21:08:14.851Z,9.14
2018-09-28T21:10:43.901Z,9.07
2018-09-28T21:13:13.214Z,9.03
2018-09-28T21:15:42.048Z,8.98
2018-09-28T21:18:11.082Z,8.93
2018-09-28T21:20:40.127Z,8.89
2018-09-28T21:23:09.992Z,8.85
2018-09-28T21:25:39.232Z,8.82
2018-09-28T21:28:07.956Z,8.78
2018-09-28T21:30:36.725Z,8.72
2018-09-28T21:33:06.251Z,8.69
2018-09-28T21:35:35.103Z,8.64
2018-09-28T21:38:03.806Z,8.55
2018-09-28T21:40:32.635Z,8.52
2018-09-28T21:43:01.396Z,8.47
2018-09-28T21:45:30.187Z,8.44
2018-09-28T21:47:58.945Z,8.42
2018-09-28T21:50:28.070Z,8.38
2018-09-28T21:52:56.813Z,8.31
2018-09-28T21:55:25.540Z,8.27
2018-09-28T21:57:54.611Z,8.24
2018-09-28T22:00:23.636Z,8.23
2018-09-28T22:02:52.394Z,8.21
2018-09-28T22:05:21.448Z,8.18
2018-09-28T22:07:50.207Z,8.13
2018-09-28T22:10:19.456Z,8.09
2018-09-28T22:12:48.200Z,8.06
2018-09-28T22:15:17.520Z,8.04
2018-09-28T22:17:46.509Z,8.02
2018-09-28T22:20:15.466Z,8.00
2018-09-28T22:22:44.566Z,7.99
2018-09-28T22:25:13.467Z,7.95
2018-09-28T22:27:42.498Z,7.95
2018-09-28T22:30:11.516Z,7.91
2018-09-28T22:32:40.547Z,7.90
2018-09-28T22:35:09.601Z,7.87
2018-09-28T22:37:38.449Z,7.84
2018-09-28T22:40:07.502Z,7.84
2018-09-28T22:42:36.851Z,7.83
2018-09-28T22:45:05.697Z,7.81
2018-09-28T22:47:34.514Z,7.76
2018-09-28T22:50:03.697Z,7.75
2018-09-28T22:52:32.590Z,7.72
2018-09-28T22:55:01.419Z,7.67
2018-09-28T22:57:31.915Z,7.61
2018-09-28T23:00:00.947Z,7.61
2018-09-28T23:02:30.026Z,7.60
2018-09-28T23:04:59.001Z,7.55
2018-09-28T23:07:27.962Z,7.52
2018-09-28T23:09:57.579Z,7.48
2018-09-28T23:12:26.906Z,7.44
2018-09-28T23:14:56.642Z,7.41
2018-09-28T23:17:25.539Z,7.35
2018-09-28T23:19:54.451Z,7.31
2018-09-28T23:22:23.266Z,7.27
2018-09-28T23:24:52.111Z,7.26
2018-09-28T23:27:21.083Z,7.23
2018-09-28T23:29:50.466Z,7.20
2018-09-28T23:32:19.779Z,7.18
2018-09-28T23:34:48.654Z,7.18
2018-09-28T23:37:17.547Z,7.13
2018-09-28T23:39:46.340Z,7.10
2018-09-28T23:42:15.162Z,7.15
2018-09-28T23:44:44.348Z,7.12
2018-09-28T23:47:13.399Z,7.11
2018-09-28T23:49:42.334Z,7.10
2018-09-28T23:52:11.107Z,7.10
2018-09-28T23:54:40.587Z,7.06
2018-09-28T23:57:09.475Z,7.07
2018-09-28T23:59:38.309Z,7.02
